createdAt,value
2023-02-23T00:00:28.185Z,10.23
2023-02-23T00:02:50.341Z,9.67
2023-02-23T00:05:11.973Z,10.47
2023-02-23T00:07:34.152Z,9.80
2023-02-23T00:09:56.981Z,9.90
2023-02-23T00:12:20.694Z,9.60
2023-02-23T00:14:42.154Z,9.27
2023-02-23T00:17:03.674Z,9.73
2023-02-23T00:19:25.350Z,9.17
2023-02-23T00:21:46.838Z,8.80
2023-02-23T00:24:10.943Z,9.57
2023-02-23T00:26:35.239Z,9.47
2023-02-23T00:28:57.880Z,11.67
2023-02-23T00:31:25.399Z,10.47
2023-02-23T00:33:46.870Z,8.87
2023-02-23T00:36:13.857Z,10.07
2023-02-23T00:38:36.449Z,11.20
2023-02-23T00:40:57.892Z,10.53
2023-02-23T00:43:20.098Z,8.20
2023-02-23T00:45:41.843Z,8.33
2023-02-23T00:48:03.833Z,10.13
2023-02-23T00:50:25.698Z,11.43
2023-02-23T00:52:47.149Z,9.80
2023-02-23T00:55:11.605Z,9.03
2023-02-23T00:57:33.557Z,11.37
2023-02-23T00:59:55.017Z,10.23
2023-02-23T01:02:16.492Z,9.13
2023-02-23T01:04:38.008Z,9.80
2023-02-23T01:06:59.416Z,9.07
2023-02-23T01:09:28.049Z,9.03
2023-02-23T01:11:49.539Z,9.00
2023-02-23T01:14:11.090Z,9.03
2023-02-23T01:16:34.412Z,8.93
2023-02-23T01:18:58.066Z,9.57
2023-02-23T01:21:25.451Z,9.83
2023-02-23T01:23:47.758Z,10.17
2023-02-23T01:26:15.942Z,9.23
2023-02-23T01:28:37.371Z,9.70
2023-02-23T01:30:58.998Z,9.87
2023-02-23T01:33:20.529Z,10.20
2023-02-23T01:35:43.636Z,11.03
2023-02-23T01:38:05.263Z,11.37
2023-02-23T01:40:30.283Z,11.40
2023-02-23T01:42:52.130Z,11.70
2023-02-23T01:45:26.163Z,11.27
2023-02-23T01:47:48.025Z,10.80
2023-02-23T01:50:11.817Z,12.83
2023-02-23T01:52:37.013Z,10.17
2023-02-23T01:54:58.499Z,10.90
2023-02-23T01:57:22.327Z,10.60
2023-02-23T01:59:47.435Z,16.07
2023-02-23T02:02:09.466Z,16.30
2023-02-23T02:04:38.186Z,13.83
2023-02-23T02:07:03.707Z,10.10
2023-02-23T02:09:25.697Z,10.50
2023-02-23T02:11:54.099Z,13.77
2023-02-23T02:14:29.490Z,13.63
2023-02-23T02:17:14.496Z,12.10
2023-02-23T02:19:44.841Z,13.17
2023-02-23T02:22:34.385Z,14.60
2023-02-23T02:25:19.644Z,14.50
2023-02-23T02:28:08.902Z,14.00
2023-02-23T02:30:48.832Z,12.50
2023-02-23T02:33:47.655Z,9.67
2023-02-23T02:36:21.699Z,10.00
2023-02-23T02:38:53.829Z,14.27
2023-02-23T02:41:53.399Z,12.03
2023-02-23T02:44:27.499Z,12.30
2023-02-23T02:46:57.965Z,11.60
2023-02-23T02:49:45.350Z,12.10
2023-02-23T02:52:29.458Z,11.37
2023-02-23T02:54:58.383Z,11.73
2023-02-23T02:57:22.608Z,13.03
2023-02-23T03:00:05.376Z,12.10
2023-02-23T03:02:45.260Z,12.57
2023-02-23T03:05:32.917Z,11.43
2023-02-23T03:08:32.204Z,11.40
2023-02-23T03:11:21.997Z,11.13
2023-02-23T03:14:11.553Z,12.47
2023-02-23T03:17:20.202Z,13.53
2023-02-23T03:20:12.889Z,13.83
2023-02-23T03:23:01.089Z,10.97
2023-02-23T03:25:51.746Z,16.93
2023-02-23T03:28:45.205Z,13.37
2023-02-23T03:31:45.957Z,12.77
2023-02-23T03:34:34.884Z,14.00
2023-02-23T03:37:29.723Z,13.87
2023-02-23T03:40:21.429Z,13.43
2023-02-23T03:43:02.953Z,13.20
2023-02-23T03:45:44.942Z,13.50
2023-02-23T03:48:28.747Z,16.03
2023-02-23T03:51:13.569Z,15.03
2023-02-23T03:54:15.655Z,17.17
2023-02-23T03:57:00.855Z,21.47
2023-02-23T03:59:45.412Z,25.70
2023-02-23T04:02:27.729Z,27.67
2023-02-23T04:05:08.739Z,19.00
2023-02-23T04:07:49.878Z,14.53
2023-02-23T04:10:30.155Z,13.60
2023-02-23T04:13:16.178Z,17.03
2023-02-23T04:15:41.213Z,26.07
2023-02-23T04:18:07.074Z,15.80
2023-02-23T04:20:28.800Z,16.73
2023-02-23T04:22:50.358Z,20.83
2023-02-23T04:25:16.130Z,24.27
2023-02-23T04:27:38.928Z,31.37
2023-02-23T04:30:00.583Z,58.33
2023-02-23T04:32:22.235Z,38.87
2023-02-23T04:34:44.939Z,56.23
2023-02-23T04:37:06.415Z,63.97
2023-02-23T04:39:29.073Z,56.17
2023-02-23T04:41:50.690Z,48.13
2023-02-23T04:44:12.227Z,31.43
2023-02-23T04:46:33.764Z,29.93
2023-02-23T04:48:55.169Z,26.23
2023-02-23T04:51:16.936Z,25.27
2023-02-23T04:53:39.373Z,26.63
2023-02-23T04:56:00.853Z,26.60
2023-02-23T04:58:22.321Z,22.50
2023-02-23T05:00:43.962Z,22.67
2023-02-23T05:03:05.587Z,23.27
2023-02-23T05:05:27.064Z,68.40
2023-02-23T05:07:48.586Z,47.57
2023-02-23T05:10:11.299Z,45.40
2023-02-23T05:12:32.922Z,52.53
2023-02-23T05:14:54.358Z,33.80
2023-02-23T05:17:15.858Z,33.83
2023-02-23T05:19:37.954Z,35.57
2023-02-23T05:21:59.421Z,40.20
2023-02-23T05:24:20.880Z,52.20
2023-02-23T05:26:42.359Z,49.37
2023-02-23T05:29:04.036Z,48.73
2023-02-23T05:31:26.594Z,42.63
2023-02-23T05:33:48.177Z,59.43
2023-02-23T05:36:16.677Z,37.37
2023-02-23T05:38:39.580Z,36.87
2023-02-23T05:41:05.136Z,30.47
2023-02-23T05:43:26.918Z,23.90
2023-02-23T05:45:48.385Z,25.23
2023-02-23T05:48:11.123Z,28.57
2023-02-23T05:50:32.613Z,27.37
2023-02-23T05:52:54.075Z,27.30
2023-02-23T05:55:15.580Z,27.67
2023-02-23T05:57:37.491Z,30.60
2023-02-23T05:59:58.917Z,30.70
2023-02-23T06:02:20.365Z,29.83
2023-02-23T06:04:42.068Z,28.33
2023-02-23T06:07:03.517Z,29.13
2023-02-23T06:09:25.185Z,28.90
2023-02-23T06:11:46.632Z,35.40
2023-02-23T06:14:08.069Z,26.13
2023-02-23T06:16:29.650Z,28.77
2023-02-23T06:18:51.167Z,30.30
2023-02-23T06:21:12.735Z,27.47
2023-02-23T06:23:34.314Z,31.07
2023-02-23T06:25:56.222Z,32.10
2023-02-23T06:28:17.689Z,31.87
2023-02-23T06:30:39.796Z,27.70
2023-02-23T06:33:01.583Z,30.03
2023-02-23T06:35:24.210Z,28.17
2023-02-23T06:37:45.697Z,31.30
2023-02-23T06:40:07.680Z,29.37
2023-02-23T06:42:29.113Z,27.07
2023-02-23T06:44:50.666Z,29.57
2023-02-23T06:47:12.164Z,28.40
2023-02-23T06:49:33.747Z,31.70
2023-02-23T06:51:55.334Z,31.33
2023-02-23T06:54:16.776Z,33.87
2023-02-23T06:56:38.202Z,32.37
2023-02-23T06:58:59.648Z,31.90
2023-02-23T07:01:21.357Z,32.33
2023-02-23T07:03:42.956Z,32.80
2023-02-23T07:06:05.766Z,35.80
2023-02-23T07:08:27.290Z,38.17
2023-02-23T07:10:48.838Z,28.43
2023-02-23T07:13:10.402Z,30.77
2023-02-23T07:15:31.822Z,41.17
2023-02-23T07:17:53.281Z,47.07
2023-02-23T07:20:17.809Z,29.77
2023-02-23T07:22:40.070Z,30.33
2023-02-23T07:25:01.654Z,30.17
2023-02-23T07:27:23.148Z,32.17
2023-02-23T07:29:44.629Z,31.67
2023-02-23T07:32:06.260Z,33.97
2023-02-23T07:34:27.817Z,32.07
2023-02-23T07:36:49.316Z,34.27
2023-02-23T07:39:10.855Z,33.33
2023-02-23T07:41:32.861Z,32.23
2023-02-23T07:43:54.331Z,32.70
2023-02-23T07:46:16.380Z,30.07
2023-02-23T07:48:40.038Z,32.10
2023-02-23T07:51:01.460Z,36.10
2023-02-23T07:53:23.487Z,36.97
2023-02-23T07:55:45.190Z,35.90
2023-02-23T07:58:07.688Z,34.43
2023-02-23T08:00:29.242Z,35.00
2023-02-23T08:02:53.119Z,34.27
2023-02-23T08:05:14.563Z,33.47
2023-02-23T08:07:36.026Z,32.60
2023-02-23T08:09:57.458Z,32.13
2023-02-23T08:12:19.211Z,32.90
2023-02-23T08:14:40.697Z,31.97
2023-02-23T08:17:02.212Z,32.23
2023-02-23T08:19:23.847Z,33.30
2023-02-23T08:21:45.447Z,31.20
2023-02-23T08:24:07.091Z,31.40
2023-02-23T08:26:28.539Z,31.23
2023-02-23T08:28:49.998Z,30.43
2023-02-23T08:31:13.251Z,31.60
2023-02-23T08:33:34.876Z,30.23
2023-02-23T08:35:59.533Z,31.57
2023-02-23T08:38:21.072Z,33.20
2023-02-23T08:40:43.325Z,33.83
2023-02-23T08:43:04.874Z,33.57
2023-02-23T08:45:29.378Z,32.17
2023-02-23T08:47:51.168Z,32.30
2023-02-23T08:50:14.150Z,31.30
2023-02-23T08:52:35.625Z,33.10
2023-02-23T08:54:57.715Z,33.47
2023-02-23T08:57:19.402Z,35.27
2023-02-23T08:59:41.593Z,37.07
2023-02-23T09:02:03.259Z,37.90
2023-02-23T09:04:24.740Z,40.67
2023-02-23T09:06:47.618Z,39.40
2023-02-23T09:09:09.167Z,39.17
2023-02-23T09:11:30.619Z,40.53
2023-02-23T09:13:52.130Z,40.03
2023-02-23T09:16:13.824Z,39.33
2023-02-23T09:18:35.713Z,39.50
2023-02-23T09:20:57.288Z,38.13
2023-02-23T09:23:18.750Z,37.40
2023-02-23T09:25:43.334Z,38.07
2023-02-23T09:28:04.940Z,38.30
2023-02-23T09:30:27.568Z,36.60
2023-02-23T09:32:53.619Z,38.07
2023-02-23T09:35:17.969Z,38.07
2023-02-23T09:37:39.432Z,37.70
2023-02-23T09:40:00.892Z,37.63
2023-02-23T09:42:44.157Z,37.20
2023-02-23T09:45:20.233Z,36.03
2023-02-23T09:48:09.283Z,34.70
2023-02-23T09:50:34.924Z,35.40
2023-02-23T09:53:03.620Z,37.93
2023-02-23T09:55:26.877Z,40.40
2023-02-23T09:57:50.685Z,41.03
2023-02-23T10:00:18.632Z,40.53
2023-02-23T10:02:53.883Z,39.43
2023-02-23T10:05:16.038Z,39.80
2023-02-23T10:07:47.819Z,41.53
2023-02-23T10:10:21.745Z,39.50
2023-02-23T10:13:10.234Z,42.73
2023-02-23T10:15:50.610Z,43.57
2023-02-23T10:18:22.285Z,37.20
2023-02-23T10:20:50.986Z,39.77
2023-02-23T10:23:16.898Z,39.20
2023-02-23T10:25:43.367Z,42.27
2023-02-23T10:28:04.937Z,35.17
2023-02-23T10:30:29.585Z,35.67
2023-02-23T10:33:10.636Z,36.33
2023-02-23T10:35:33.773Z,35.03
2023-02-23T10:37:56.311Z,34.43
2023-02-23T10:40:23.082Z,34.47
2023-02-23T10:42:44.610Z,34.53
2023-02-23T10:45:22.693Z,35.17
2023-02-23T10:47:45.165Z,34.83
2023-02-23T10:50:09.984Z,55.93
2023-02-23T10:52:43.738Z,73.80
2023-02-23T10:55:08.195Z,60.27
2023-02-23T10:57:33.150Z,48.57
2023-02-23T11:00:32.848Z,48.30
2023-02-23T11:02:55.694Z,58.53
2023-02-23T11:05:34.394Z,53.27
2023-02-23T11:08:21.168Z,46.80
2023-02-23T11:10:42.642Z,41.00
2023-02-23T11:13:04.042Z,37.47
2023-02-23T11:15:39.383Z,29.83
2023-02-23T11:18:21.647Z,27.92
2023-02-23T11:20:43.275Z,25.42
2023-02-23T11:23:22.518Z,24.27
2023-02-23T11:25:46.131Z,22.95
2023-02-23T11:28:20.895Z,22.00
2023-02-23T11:30:42.997Z,20.58
2023-02-23T11:33:12.087Z,20.98
2023-02-23T11:35:33.523Z,20.27
2023-02-23T11:37:55.734Z,19.77
2023-02-23T11:40:27.963Z,21.67
2023-02-23T11:43:06.402Z,19.35
2023-02-23T11:45:33.666Z,18.50
2023-02-23T11:47:58.755Z,16.45
2023-02-23T11:50:22.122Z,17.02
2023-02-23T11:52:44.672Z,15.68
2023-02-23T11:55:08.100Z,16.35
2023-02-23T11:57:33.741Z,16.65
2023-02-23T11:59:59.351Z,17.08
2023-02-23T12:02:30.090Z,17.55
2023-02-23T12:05:06.354Z,18.05
2023-02-23T12:07:41.869Z,17.02
2023-02-23T12:10:16.545Z,17.15
2023-02-23T12:12:51.089Z,15.05
2023-02-23T12:15:24.842Z,9.60
2023-02-23T12:17:53.613Z,5.70
2023-02-23T12:20:21.760Z,6.00
2023-02-23T12:22:47.985Z,7.03
2023-02-23T12:25:35.938Z,7.17
2023-02-23T12:28:18.798Z,6.33
2023-02-23T12:30:46.782Z,6.90
2023-02-23T12:33:18.070Z,6.63
2023-02-23T12:36:11.445Z,6.27
2023-02-23T12:38:56.092Z,5.87
2023-02-23T12:41:30.219Z,4.60
2023-02-23T12:44:02.442Z,4.25
2023-02-23T12:46:48.938Z,4.40
2023-02-23T12:49:27.789Z,4.38
2023-02-23T12:51:58.376Z,4.55
2023-02-23T12:54:20.064Z,4.53
2023-02-23T12:56:58.882Z,4.45
2023-02-23T12:59:26.540Z,4.18
2023-02-23T13:02:04.827Z,4.22
2023-02-23T13:04:49.768Z,4.45
2023-02-23T13:07:36.555Z,4.50
2023-02-23T13:10:23.050Z,4.70
2023-02-23T13:13:11.461Z,4.45
2023-02-23T13:15:45.092Z,4.97
2023-02-23T13:18:23.853Z,4.97
2023-02-23T13:20:51.758Z,4.45
2023-02-23T13:23:37.819Z,5.22
2023-02-23T13:26:10.542Z,5.03
2023-02-23T13:28:56.628Z,5.03
2023-02-23T13:31:30.422Z,5.17
2023-02-23T13:33:54.731Z,5.47
2023-02-23T13:36:17.409Z,5.50
2023-02-23T13:38:46.213Z,5.53
2023-02-23T13:41:17.740Z,5.30
2023-02-23T13:43:53.149Z,5.50
2023-02-23T13:46:45.224Z,4.80
2023-02-23T13:49:31.829Z,5.20
2023-02-23T13:52:00.704Z,5.43
2023-02-23T13:54:25.473Z,5.30
2023-02-23T13:56:54.966Z,5.70
2023-02-23T13:59:22.519Z,5.60
2023-02-23T14:01:47.612Z,5.37
2023-02-23T14:04:22.286Z,5.27
2023-02-23T14:06:56.745Z,26.83
2023-02-23T14:09:24.392Z,5.30
2023-02-23T14:11:56.563Z,4.63
2023-02-23T14:14:33.258Z,5.30
2023-02-23T14:17:14.688Z,6.83
2023-02-23T14:19:38.390Z,33.20
2023-02-23T14:22:05.299Z,5.50
2023-02-23T14:24:27.782Z,6.50
2023-02-23T14:27:06.499Z,6.57
2023-02-23T14:29:31.983Z,6.43
2023-02-23T14:32:13.901Z,5.97
2023-02-23T14:34:59.477Z,6.73
2023-02-23T14:37:25.517Z,9.27
2023-02-23T14:39:50.637Z,8.73
2023-02-23T14:42:22.233Z,6.93
2023-02-23T14:44:51.344Z,12.47
2023-02-23T14:47:16.169Z,22.30
2023-02-23T14:49:43.556Z,24.77
2023-02-23T14:52:14.303Z,16.37
2023-02-23T14:54:38.314Z,11.23
2023-02-23T14:57:03.281Z,7.97
2023-02-23T14:59:35.719Z,7.13
2023-02-23T15:02:00.390Z,8.23
2023-02-23T15:04:27.517Z,10.63
2023-02-23T15:06:49.500Z,9.90
2023-02-23T15:09:18.810Z,8.67
2023-02-23T15:11:43.619Z,9.37
2023-02-23T15:14:07.363Z,8.70
2023-02-23T15:16:37.085Z,9.13
2023-02-23T15:19:32.166Z,9.67
2023-02-23T15:21:56.164Z,11.43
2023-02-23T15:24:24.651Z,9.47
2023-02-23T15:26:46.357Z,9.77
2023-02-23T15:29:10.985Z,9.70
2023-02-23T15:31:32.671Z,9.57
2023-02-23T15:33:55.744Z,10.40
2023-02-23T15:36:34.640Z,9.57
2023-02-23T15:38:59.772Z,11.17
2023-02-23T15:41:28.595Z,11.20
2023-02-23T15:43:50.324Z,11.57
2023-02-23T15:46:24.105Z,12.93
2023-02-23T15:48:49.267Z,11.90
2023-02-23T15:51:22.768Z,11.47
2023-02-23T15:53:44.389Z,10.20
2023-02-23T15:56:30.635Z,9.73
2023-02-23T15:58:57.160Z,9.70
2023-02-23T16:01:25.005Z,9.67
2023-02-23T16:03:57.452Z,9.77
2023-02-23T16:06:25.689Z,9.80
2023-02-23T16:08:58.098Z,9.90
2023-02-23T16:11:20.386Z,13.77
2023-02-23T16:13:46.604Z,12.03
2023-02-23T16:16:11.725Z,12.97
2023-02-23T16:18:41.655Z,18.13
2023-02-23T16:21:04.571Z,17.30
2023-02-23T16:23:34.284Z,18.20
2023-02-23T16:26:01.527Z,10.30
2023-02-23T16:28:24.712Z,16.47
2023-02-23T16:31:03.529Z,15.07
2023-02-23T16:33:30.611Z,14.30
2023-02-23T16:36:08.198Z,19.10
2023-02-23T16:38:42.438Z,22.00
2023-02-23T16:41:05.485Z,24.43
2023-02-23T16:43:27.189Z,28.27
2023-02-23T16:45:48.940Z,22.47
2023-02-23T16:48:14.212Z,22.47
2023-02-23T16:50:40.524Z,22.63
2023-02-23T16:53:03.518Z,20.20
2023-02-23T16:55:28.095Z,20.17
2023-02-23T16:57:51.677Z,21.83
2023-02-23T17:00:18.426Z,20.30
2023-02-23T17:02:39.948Z,18.40
2023-02-23T17:05:01.404Z,19.97
2023-02-23T17:07:24.128Z,15.93
2023-02-23T17:09:45.845Z,13.30
2023-02-23T17:12:12.986Z,11.83
2023-02-23T17:14:34.466Z,11.57
2023-02-23T17:16:56.213Z,10.83
2023-02-23T17:19:19.392Z,11.23
2023-02-23T17:21:40.879Z,10.63
2023-02-23T17:24:03.751Z,11.37
2023-02-23T17:26:26.037Z,11.63
2023-02-23T17:28:47.909Z,10.03
2023-02-23T17:31:10.043Z,11.23
2023-02-23T17:33:33.644Z,10.70
2023-02-23T17:35:55.108Z,11.67
2023-02-23T17:38:21.415Z,11.30
2023-02-23T17:40:44.104Z,11.30
2023-02-23T17:43:09.743Z,11.63
2023-02-23T17:45:31.926Z,13.00
2023-02-23T17:47:53.856Z,12.20
2023-02-23T17:50:15.465Z,12.77
2023-02-23T17:52:37.057Z,12.93
2023-02-23T17:55:00.194Z,13.57
2023-02-23T17:57:22.973Z,12.83
2023-02-23T17:59:44.540Z,11.80
2023-02-23T18:02:07.134Z,13.03
2023-02-23T18:04:28.624Z,11.57
2023-02-23T18:06:50.084Z,13.03
2023-02-23T18:09:14.504Z,12.97
2023-02-23T18:11:35.987Z,12.77
2023-02-23T18:13:57.435Z,13.57
2023-02-23T18:16:20.238Z,16.07
2023-02-23T18:18:45.053Z,14.93
2023-02-23T18:21:12.473Z,15.87
2023-02-23T18:23:33.934Z,15.57
2023-02-23T18:25:55.526Z,14.77
2023-02-23T18:28:18.471Z,14.77
2023-02-23T18:30:41.542Z,15.23
2023-02-23T18:33:04.100Z,15.53
2023-02-23T18:35:25.874Z,15.20
2023-02-23T18:37:47.436Z,15.00
2023-02-23T18:40:21.100Z,14.27
2023-02-23T18:42:42.544Z,13.07
2023-02-23T18:45:04.455Z,13.63
2023-02-23T18:47:25.968Z,13.17
2023-02-23T18:49:47.659Z,13.17
2023-02-23T18:52:11.959Z,14.77
2023-02-23T18:54:33.392Z,17.33
2023-02-23T18:56:55.903Z,21.10
2023-02-23T18:59:17.351Z,23.50
2023-02-23T19:01:39.400Z,19.47
2023-02-23T19:04:02.215Z,18.23
2023-02-23T19:06:24.650Z,18.50
2023-02-23T19:08:54.032Z,18.40
2023-02-23T19:11:15.509Z,18.23
2023-02-23T19:13:40.407Z,18.40
2023-02-23T19:16:07.465Z,18.07
2023-02-23T19:18:28.953Z,16.93
2023-02-23T19:20:55.353Z,17.47
2023-02-23T19:23:16.849Z,20.60
2023-02-23T19:25:38.630Z,17.70
2023-02-23T19:28:00.107Z,16.37
2023-02-23T19:30:21.852Z,16.20
2023-02-23T19:32:43.988Z,16.70
2023-02-23T19:35:08.127Z,15.50
2023-02-23T19:37:29.728Z,15.63
2023-02-23T19:39:51.194Z,16.50
2023-02-23T19:42:18.236Z,16.50
2023-02-23T19:44:39.679Z,17.77
2023-02-23T19:47:01.198Z,17.03
2023-02-23T19:49:23.194Z,17.50
2023-02-23T19:51:44.989Z,17.13
2023-02-23T19:54:07.548Z,18.13
2023-02-23T19:56:29.416Z,17.10
2023-02-23T19:58:51.697Z,17.30
2023-02-23T20:01:16.743Z,17.13
2023-02-23T20:03:43.195Z,18.30
2023-02-23T20:06:06.735Z,18.90
2023-02-23T20:08:28.206Z,18.27
2023-02-23T20:10:50.652Z,18.87
2023-02-23T20:13:12.125Z,17.60
2023-02-23T20:15:33.596Z,18.67
2023-02-23T20:17:55.038Z,18.90
2023-02-23T20:20:16.731Z,20.23
2023-02-23T20:22:41.419Z,20.10
2023-02-23T20:25:05.942Z,22.33
2023-02-23T20:27:30.375Z,22.27
2023-02-23T20:29:53.554Z,21.40
2023-02-23T20:32:15.132Z,20.17
2023-02-23T20:34:39.198Z,19.60
2023-02-23T20:37:00.700Z,20.87
2023-02-23T20:39:24.369Z,20.37
2023-02-23T20:41:47.800Z,21.17
2023-02-23T20:44:10.708Z,21.47
2023-02-23T20:46:32.299Z,19.60
2023-02-23T20:48:54.302Z,20.60
2023-02-23T20:51:18.737Z,21.67
2023-02-23T20:53:41.937Z,19.13
2023-02-23T20:56:05.716Z,19.13
2023-02-23T20:58:28.487Z,20.47
2023-02-23T21:00:50.332Z,20.60
2023-02-23T21:03:11.748Z,22.80
2023-02-23T21:05:38.350Z,27.10
2023-02-23T21:08:03.084Z,25.43
2023-02-23T21:10:24.556Z,36.23
2023-02-23T21:12:46.606Z,22.30
2023-02-23T21:15:09.400Z,19.33
2023-02-23T21:17:30.885Z,15.33
2023-02-23T21:19:52.344Z,14.00
2023-02-23T21:22:16.347Z,14.10
2023-02-23T21:24:40.985Z,14.40
2023-02-23T21:27:05.295Z,15.27
2023-02-23T21:29:27.936Z,14.40
2023-02-23T21:31:49.607Z,16.20
2023-02-23T21:34:11.563Z,18.00
2023-02-23T21:36:34.148Z,18.20
2023-02-23T21:38:55.622Z,19.13
2023-02-23T21:41:17.168Z,18.67
2023-02-23T21:43:41.306Z,18.03
2023-02-23T21:46:11.285Z,17.53
2023-02-23T21:48:32.758Z,17.63
2023-02-23T21:50:54.212Z,18.50
2023-02-23T21:53:15.709Z,18.30
2023-02-23T21:55:38.716Z,20.33
2023-02-23T21:58:00.277Z,15.23
2023-02-23T22:00:22.822Z,16.00
2023-02-23T22:02:46.303Z,17.00
2023-02-23T22:05:09.102Z,14.53
2023-02-23T22:07:32.390Z,14.47
2023-02-23T22:09:53.897Z,19.83
2023-02-23T22:12:15.888Z,15.83
2023-02-23T22:14:37.418Z,15.00
2023-02-23T22:16:59.342Z,14.50
2023-02-23T22:19:21.160Z,18.77
2023-02-23T22:21:43.529Z,17.10
2023-02-23T22:24:06.233Z,13.50
2023-02-23T22:26:30.204Z,13.93
2023-02-23T22:28:51.726Z,15.33
2023-02-23T22:31:14.595Z,17.73
2023-02-23T22:33:38.148Z,14.60
2023-02-23T22:36:03.892Z,14.23
2023-02-23T22:38:25.358Z,14.43
2023-02-23T22:40:47.836Z,15.10
2023-02-23T22:43:10.927Z,18.43
2023-02-23T22:45:32.379Z,14.47
2023-02-23T22:47:55.461Z,15.53
2023-02-23T22:50:19.236Z,15.07
2023-02-23T22:52:43.162Z,15.00
2023-02-23T22:55:05.039Z,15.17
2023-02-23T22:57:26.543Z,22.83
2023-02-23T22:59:54.667Z,15.93
2023-02-23T23:02:16.187Z,16.37
2023-02-23T23:04:37.711Z,17.33
2023-02-23T23:06:59.196Z,15.30
2023-02-23T23:09:21.384Z,16.63
2023-02-23T23:11:43.042Z,15.57
2023-02-23T23:14:07.040Z,16.53
2023-02-23T23:16:33.965Z,16.60
2023-02-23T23:18:56.761Z,14.83
2023-02-23T23:21:22.021Z,14.77
2023-02-23T23:23:45.115Z,13.33
2023-02-23T23:26:07.229Z,12.77
2023-02-23T23:28:28.736Z,12.37
2023-02-23T23:30:52.163Z,12.40
2023-02-23T23:33:13.817Z,11.33
2023-02-23T23:35:35.304Z,13.17
2023-02-23T23:37:56.900Z,12.97
2023-02-23T23:40:24.294Z,11.57
2023-02-23T23:42:46.647Z,11.57
2023-02-23T23:45:09.728Z,11.90
2023-02-23T23:47:31.193Z,12.30
2023-02-23T23:49:53.554Z,12.03
2023-02-23T23:52:17.873Z,11.77
2023-02-23T23:54:40.810Z,10.50
2023-02-23T23:57:02.370Z,11.03
2023-02-23T23:59:26.477Z,10.47
